createdAt,value
2022-12-03T00:00:50.478Z,32.60
2022-12-03T00:03:52.123Z,28.75
2022-12-03T00:06:53.677Z,32.47
2022-12-03T00:09:55.088Z,30.75
2022-12-03T00:12:56.515Z,30.27
2022-12-03T00:15:57.945Z,29.60
2022-12-03T00:18:59.581Z,28.48
2022-12-03T00:22:01.107Z,27.77
2022-12-03T00:25:02.613Z,33.90
2022-12-03T00:28:04.399Z,27.30
2022-12-03T00:31:06.635Z,28.25
2022-12-03T00:34:08.120Z,29.33
2022-12-03T00:37:09.580Z,33.40
2022-12-03T00:40:11.767Z,36.85
2022-12-03T00:43:13.268Z,28.85
2022-12-03T00:46:19.671Z,29.98
2022-12-03T00:49:22.731Z,30.23
2022-12-03T00:52:24.165Z,29.00
2022-12-03T00:55:25.623Z,27.20
2022-12-03T00:58:27.086Z,32.50
2022-12-03T01:01:28.599Z,29.88
2022-12-03T01:04:30.455Z,28.75
2022-12-03T01:07:32.049Z,35.38
2022-12-03T01:10:33.503Z,31.13
2022-12-03T01:13:34.955Z,28.20
2022-12-03T01:16:37.068Z,25.73
2022-12-03T01:19:42.218Z,29.23
2022-12-03T01:22:46.423Z,29.80
2022-12-03T01:25:47.851Z,29.35
2022-12-03T01:28:49.302Z,31.70
2022-12-03T01:31:50.994Z,28.85
2022-12-03T01:34:54.701Z,31.92
2022-12-03T01:37:56.403Z,27.60
2022-12-03T01:40:58.217Z,29.90
2022-12-03T01:44:00.070Z,33.50
2022-12-03T01:47:05.865Z,33.33
2022-12-03T01:50:27.119Z,27.52
2022-12-03T01:53:28.604Z,28.65
2022-12-03T01:56:30.111Z,33.70
2022-12-03T01:59:38.600Z,34.25
2022-12-03T02:02:40.239Z,34.05
2022-12-03T02:05:42.113Z,30.77
2022-12-03T02:08:44.308Z,34.30
2022-12-03T02:11:50.329Z,33.28
2022-12-03T02:14:52.733Z,31.35
2022-12-03T02:17:55.800Z,34.53
2022-12-03T02:21:12.051Z,32.15
2022-12-03T02:24:33.256Z,29.55
2022-12-03T02:27:34.767Z,34.20
2022-12-03T02:30:36.756Z,32.72
2022-12-03T02:33:38.193Z,32.60
2022-12-03T02:36:39.867Z,33.53
2022-12-03T02:39:47.030Z,29.08
2022-12-03T02:42:53.390Z,30.48
2022-12-03T02:45:58.828Z,30.33
2022-12-03T02:49:00.917Z,33.65
2022-12-03T02:52:03.146Z,31.30
2022-12-03T02:55:06.923Z,32.03
2022-12-03T02:58:10.709Z,27.15
2022-12-03T03:01:12.848Z,34.97
2022-12-03T03:04:14.354Z,31.00
2022-12-03T03:07:16.134Z,34.47
2022-12-03T03:10:22.607Z,29.92
2022-12-03T03:13:24.068Z,29.95
2022-12-03T03:16:25.827Z,31.90
2022-12-03T03:19:28.976Z,33.03
2022-12-03T03:22:39.563Z,32.20
2022-12-03T03:25:44.616Z,30.83
2022-12-03T03:28:50.567Z,30.77
2022-12-03T03:31:52.226Z,32.03
2022-12-03T03:34:54.918Z,26.67
2022-12-03T03:37:57.055Z,28.23
2022-12-03T03:41:01.902Z,30.15
2022-12-03T03:44:06.380Z,25.42
2022-12-03T03:47:07.897Z,32.28
2022-12-03T03:50:11.786Z,27.98
2022-12-03T03:53:14.035Z,28.80
2022-12-03T03:56:20.910Z,25.52
2022-12-03T03:59:22.391Z,36.30
2022-12-03T04:02:26.246Z,30.67
2022-12-03T04:05:27.955Z,30.20
2022-12-03T04:08:29.703Z,31.85
2022-12-03T04:11:31.111Z,28.10
2022-12-03T04:14:32.618Z,30.02
2022-12-03T04:17:34.079Z,30.17
2022-12-03T04:20:35.881Z,28.70
2022-12-03T04:23:37.333Z,28.05
2022-12-03T04:26:38.876Z,33.30
2022-12-03T04:29:40.337Z,31.70
2022-12-03T04:32:41.767Z,32.42
2022-12-03T04:35:43.271Z,28.15
2022-12-03T04:38:44.757Z,31.17
2022-12-03T04:41:46.513Z,27.17
2022-12-03T04:44:48.174Z,30.55
2022-12-03T04:47:49.595Z,33.15
2022-12-03T04:50:51.058Z,32.83
2022-12-03T04:53:52.525Z,26.73
2022-12-03T04:56:54.216Z,32.30
2022-12-03T04:59:55.618Z,33.05
2022-12-03T05:02:58.600Z,30.25
2022-12-03T05:06:00.087Z,34.88
2022-12-03T05:09:01.475Z,31.45
2022-12-03T05:12:02.959Z,33.55
2022-12-03T05:15:05.986Z,30.88
2022-12-03T05:18:07.380Z,26.33
2022-12-03T05:21:08.845Z,26.98
2022-12-03T05:24:28.685Z,32.15
2022-12-03T05:27:30.244Z,28.80
2022-12-03T05:30:32.028Z,31.27
2022-12-03T05:33:33.655Z,31.65
2022-12-03T05:36:35.085Z,30.25
2022-12-03T05:39:36.967Z,29.50
2022-12-03T05:42:38.559Z,32.40
2022-12-03T05:45:42.168Z,30.90
2022-12-03T05:48:43.666Z,34.65
2022-12-03T05:51:45.154Z,37.50
2022-12-03T05:54:46.558Z,30.60
2022-12-03T05:57:47.951Z,34.72
2022-12-03T06:00:49.413Z,28.67
2022-12-03T06:03:50.984Z,34.92
2022-12-03T06:06:52.576Z,30.85
2022-12-03T06:09:54.043Z,32.50
2022-12-03T06:12:55.621Z,31.15
2022-12-03T06:15:57.103Z,33.88
2022-12-03T06:18:58.532Z,37.25
2022-12-03T06:21:59.940Z,29.00
2022-12-03T06:25:06.579Z,34.42
2022-12-03T06:28:08.702Z,35.47
2022-12-03T06:31:10.262Z,35.05
2022-12-03T06:34:11.960Z,35.85
2022-12-03T06:37:22.477Z,42.03
2022-12-03T06:40:27.299Z,37.40
2022-12-03T06:43:47.550Z,37.15
2022-12-03T06:46:49.083Z,33.50
2022-12-03T06:49:50.555Z,33.88
2022-12-03T06:52:51.992Z,37.45
2022-12-03T06:55:53.408Z,35.97
2022-12-03T06:58:54.983Z,33.80
2022-12-03T07:01:56.476Z,32.95
2022-12-03T07:04:58.372Z,34.58
2022-12-03T07:08:00.025Z,32.97
2022-12-03T07:11:01.572Z,32.33
2022-12-03T07:14:05.425Z,30.40
2022-12-03T07:20:09.599Z,37.95
2022-12-03T07:23:11.257Z,36.03
2022-12-03T07:26:12.679Z,45.95
2022-12-03T07:29:14.108Z,44.13
2022-12-03T07:32:15.608Z,39.80
2022-12-03T07:35:17.178Z,42.70
2022-12-03T07:38:18.609Z,34.40
2022-12-03T07:41:20.264Z,39.30
2022-12-03T07:44:21.709Z,40.65
2022-12-03T07:47:23.150Z,40.00
2022-12-03T07:50:24.608Z,36.92
2022-12-03T07:53:26.078Z,41.00
2022-12-03T07:56:27.475Z,35.85
2022-12-03T07:59:29.454Z,37.85
2022-12-03T08:02:30.983Z,36.15
2022-12-03T08:05:32.422Z,40.92
2022-12-03T08:08:33.936Z,36.25
2022-12-03T08:11:35.648Z,33.03
2022-12-03T08:14:37.051Z,33.50
2022-12-03T08:17:38.550Z,30.58
2022-12-03T08:20:41.564Z,34.83
2022-12-03T08:23:43.505Z,35.65
2022-12-03T08:26:46.790Z,34.28
2022-12-03T08:29:48.198Z,35.97
2022-12-03T08:32:51.475Z,36.00
2022-12-03T08:35:53.699Z,32.80
2022-12-03T08:38:58.912Z,37.80
2022-12-03T08:42:18.907Z,33.85
2022-12-03T08:45:32.568Z,28.45
2022-12-03T08:48:35.296Z,31.95
2022-12-03T08:51:36.783Z,33.15
2022-12-03T08:54:38.303Z,32.10
2022-12-03T08:57:41.235Z,27.67
2022-12-03T09:00:42.747Z,34.08
2022-12-03T09:03:51.080Z,33.42
2022-12-03T09:06:54.071Z,30.00
2022-12-03T09:09:55.549Z,33.00
2022-12-03T09:12:56.984Z,29.15
2022-12-03T09:15:58.385Z,30.02
2022-12-03T09:19:00.836Z,31.02
2022-12-03T09:22:02.353Z,30.58
2022-12-03T09:25:04.043Z,29.50
2022-12-03T09:28:05.543Z,30.38
2022-12-03T09:31:06.959Z,30.77
2022-12-03T09:34:09.291Z,33.53
2022-12-03T09:37:11.420Z,31.98
2022-12-03T09:40:13.702Z,29.63
2022-12-03T09:43:15.828Z,35.30
2022-12-03T09:46:18.801Z,35.55
2022-12-03T09:49:20.381Z,37.75
2022-12-03T09:52:28.803Z,34.75
2022-12-03T09:55:30.608Z,39.53
2022-12-03T09:58:34.908Z,36.42
2022-12-03T10:01:36.709Z,40.90
2022-12-03T10:04:38.284Z,46.10
2022-12-03T10:07:40.517Z,42.10
2022-12-03T10:10:42.483Z,42.53
2022-12-03T10:13:44.929Z,44.45
2022-12-03T10:16:46.583Z,49.88
2022-12-03T10:19:48.105Z,37.33
2022-12-03T10:22:49.996Z,42.60
2022-12-03T10:25:56.753Z,45.40
2022-12-03T10:28:58.236Z,39.47
2022-12-03T10:32:08.988Z,41.60
2022-12-03T10:35:25.781Z,41.58
2022-12-03T10:38:27.867Z,38.90
2022-12-03T10:41:29.358Z,37.70
2022-12-03T10:44:30.838Z,43.10
2022-12-03T10:47:32.481Z,39.75
2022-12-03T10:50:35.077Z,42.17
2022-12-03T10:53:39.581Z,41.83
2022-12-03T10:56:44.313Z,45.72
2022-12-03T10:59:45.819Z,45.72
2022-12-03T11:02:53.334Z,44.97
2022-12-03T11:06:01.020Z,46.67
2022-12-03T11:09:08.483Z,43.15
2022-12-03T11:12:20.210Z,48.00
2022-12-03T11:15:42.600Z,38.75
2022-12-03T11:18:44.032Z,43.85
2022-12-03T11:22:03.751Z,38.90
2022-12-03T11:25:26.828Z,42.88
2022-12-03T11:28:31.684Z,38.08
2022-12-03T11:31:39.997Z,45.00
2022-12-03T11:34:41.473Z,36.08
2022-12-03T11:37:42.887Z,40.85
2022-12-03T11:41:08.162Z,37.88
2022-12-03T11:44:30.835Z,35.40
2022-12-03T11:47:58.419Z,35.75
2022-12-03T11:50:59.903Z,36.15
2022-12-03T11:54:01.457Z,38.30
2022-12-03T11:57:03.132Z,42.33
2022-12-03T12:00:23.977Z,40.40
2022-12-03T12:03:27.406Z,39.58
2022-12-03T12:06:39.023Z,37.72
2022-12-03T12:09:55.051Z,31.25
2022-12-03T12:12:56.724Z,41.90
2022-12-03T12:16:00.109Z,43.30
2022-12-03T12:19:30.145Z,40.03
2022-12-03T12:22:31.688Z,39.58
2022-12-03T12:25:40.702Z,36.15
2022-12-03T12:28:42.158Z,41.60
2022-12-03T12:31:43.646Z,37.78
2022-12-03T12:34:51.042Z,35.33
2022-12-03T12:37:59.212Z,36.35
2022-12-03T12:41:07.378Z,33.03
2022-12-03T12:44:12.220Z,35.13
2022-12-03T12:47:13.777Z,36.67
2022-12-03T12:50:17.665Z,34.10
2022-12-03T12:53:32.143Z,39.60
2022-12-03T12:59:35.374Z,27.83
2022-12-03T13:02:40.836Z,36.85
2022-12-03T13:05:44.814Z,35.92
2022-12-03T13:08:48.973Z,34.80
2022-12-03T13:14:59.272Z,29.23
2022-12-03T13:18:01.520Z,34.65
2022-12-03T13:21:24.888Z,32.20
2022-12-03T13:24:33.924Z,33.25
2022-12-03T13:27:35.343Z,31.83
2022-12-03T13:30:36.839Z,26.13
2022-12-03T13:33:38.619Z,31.75
2022-12-03T13:36:44.136Z,25.17
2022-12-03T13:39:57.296Z,33.72
2022-12-03T13:42:59.131Z,34.42
2022-12-03T13:46:00.625Z,32.53
2022-12-03T13:49:02.346Z,33.35
2022-12-03T13:52:14.287Z,32.67
2022-12-03T13:55:24.523Z,34.35
2022-12-03T13:58:26.046Z,32.58
2022-12-03T14:01:28.262Z,29.58
2022-12-03T14:04:29.760Z,31.77
2022-12-03T14:07:31.262Z,35.25
2022-12-03T14:10:32.761Z,35.42
2022-12-03T14:13:34.319Z,37.15
2022-12-03T14:16:35.828Z,40.85
2022-12-03T14:19:37.423Z,49.80
2022-12-03T14:22:38.820Z,40.97
2022-12-03T14:25:40.230Z,42.88
2022-12-03T14:28:41.783Z,54.53
2022-12-03T14:31:43.299Z,50.65
2022-12-03T14:34:44.764Z,51.15
2022-12-03T14:37:46.243Z,42.47
2022-12-03T14:40:47.704Z,41.72
2022-12-03T14:43:49.158Z,46.83
2022-12-03T14:46:54.037Z,44.30
2022-12-03T14:49:58.345Z,48.22
2022-12-03T14:52:59.799Z,61.30
2022-12-03T14:56:01.215Z,57.25
2022-12-03T14:59:02.711Z,61.40
2022-12-03T15:02:04.334Z,49.05
2022-12-03T15:05:06.339Z,49.75
2022-12-03T15:08:07.867Z,53.20
2022-12-03T15:11:10.628Z,54.53
2022-12-03T15:14:12.105Z,54.00
2022-12-03T15:17:13.562Z,39.72
2022-12-03T15:20:15.147Z,48.08
2022-12-03T15:23:17.381Z,46.03
2022-12-03T15:26:18.827Z,40.80
2022-12-03T15:29:21.148Z,45.30
2022-12-03T15:32:22.640Z,40.35
2022-12-03T15:35:24.122Z,43.10
2022-12-03T15:38:25.626Z,51.50
2022-12-03T15:41:27.089Z,45.97
2022-12-03T15:44:28.563Z,45.88
2022-12-03T15:47:29.995Z,49.70
2022-12-03T15:50:35.695Z,50.10
2022-12-03T15:53:40.518Z,43.55
2022-12-03T15:56:41.960Z,40.63
2022-12-03T15:59:43.419Z,44.63
2022-12-03T16:02:50.784Z,41.67
2022-12-03T16:05:53.828Z,40.40
2022-12-03T16:08:55.299Z,40.92
2022-12-03T16:11:56.703Z,37.63
2022-12-03T16:14:58.181Z,39.22
2022-12-03T16:17:59.611Z,37.88
2022-12-03T16:21:01.082Z,33.97
2022-12-03T16:24:02.676Z,36.50
2022-12-03T16:27:04.275Z,24.52
2022-12-03T16:30:07.264Z,38.22
2022-12-03T16:33:08.814Z,32.65
2022-12-03T16:36:10.552Z,32.08
2022-12-03T16:39:12.119Z,32.60
2022-12-03T16:42:17.286Z,35.50
2022-12-03T16:45:19.179Z,35.95
2022-12-03T16:48:20.607Z,38.70
2022-12-03T16:51:40.522Z,40.80
2022-12-03T16:54:42.013Z,33.10
2022-12-03T16:57:43.462Z,41.25
2022-12-03T17:00:44.920Z,52.85
2022-12-03T17:03:46.396Z,41.67
2022-12-03T17:06:47.794Z,40.75
2022-12-03T17:09:49.205Z,34.45
2022-12-03T17:16:12.079Z,35.78
2022-12-03T17:19:14.002Z,42.88
2022-12-03T17:22:15.571Z,47.22
2022-12-03T17:25:17.925Z,40.08
2022-12-03T17:28:19.370Z,45.10
2022-12-03T17:31:20.874Z,40.58
2022-12-03T17:34:22.390Z,37.83
2022-12-03T17:37:23.890Z,35.30
2022-12-03T17:40:25.344Z,50.90
2022-12-03T17:43:26.787Z,37.47
2022-12-03T17:46:28.644Z,57.20
2022-12-03T17:49:31.832Z,61.55
2022-12-03T17:52:33.412Z,47.87
2022-12-03T17:55:41.145Z,49.08
2022-12-03T17:58:46.854Z,52.13
2022-12-03T18:01:48.402Z,48.78
2022-12-03T18:04:49.848Z,39.95
2022-12-03T18:07:51.607Z,45.67
2022-12-03T18:10:53.270Z,42.67
2022-12-03T18:13:54.738Z,50.97
2022-12-03T18:16:56.136Z,50.65
2022-12-03T18:23:02.297Z,52.00
2022-12-03T18:26:04.600Z,50.65
2022-12-03T18:29:06.050Z,39.35
2022-12-03T18:32:27.201Z,48.75
2022-12-03T18:35:30.172Z,50.85
2022-12-03T18:38:33.615Z,53.40
2022-12-03T18:41:36.104Z,49.88
2022-12-03T18:44:37.548Z,50.45
2022-12-03T18:47:39.091Z,47.17
2022-12-03T18:50:41.081Z,49.08
2022-12-03T18:53:43.620Z,48.83
2022-12-03T18:56:45.072Z,45.05
2022-12-03T18:59:46.798Z,59.40
2022-12-03T19:03:04.567Z,41.67
2022-12-03T19:06:18.845Z,47.22
2022-12-03T19:09:20.622Z,52.25
2022-12-03T19:12:22.116Z,58.90
2022-12-03T19:15:23.603Z,49.88
2022-12-03T19:18:25.095Z,56.03
2022-12-03T19:21:32.143Z,47.40
2022-12-03T19:24:35.189Z,54.13
2022-12-03T19:27:36.596Z,55.83
2022-12-03T19:30:38.048Z,55.05
2022-12-03T19:33:39.827Z,56.30
2022-12-03T19:36:41.338Z,54.20
2022-12-03T19:39:42.796Z,40.17
2022-12-03T19:42:44.208Z,50.20
2022-12-03T19:45:45.727Z,51.70
2022-12-03T19:48:47.384Z,48.47
2022-12-03T19:51:49.031Z,57.72
2022-12-03T19:54:50.592Z,49.00
2022-12-03T19:57:51.999Z,51.95
2022-12-03T20:00:53.507Z,58.45
2022-12-03T20:03:57.631Z,55.13
2022-12-03T20:06:59.074Z,55.65
2022-12-03T20:10:00.661Z,49.78
2022-12-03T20:13:02.433Z,51.70
2022-12-03T20:16:05.405Z,52.03
2022-12-03T20:19:10.639Z,53.65
2022-12-03T20:22:12.212Z,51.70
2022-12-03T20:25:13.968Z,48.42
2022-12-03T20:28:15.408Z,55.17
2022-12-03T20:31:20.108Z,54.53
2022-12-03T20:34:21.669Z,51.53
2022-12-03T20:37:23.184Z,46.85
2022-12-03T20:40:24.717Z,50.17
2022-12-03T20:43:26.149Z,49.20
2022-12-03T20:46:29.501Z,49.58
2022-12-03T20:49:31.111Z,44.63
2022-12-03T20:52:32.543Z,50.17
2022-12-03T20:55:34.063Z,45.90
2022-12-03T20:58:36.173Z,48.88
2022-12-03T21:01:37.972Z,49.05
2022-12-03T21:04:39.461Z,48.38
2022-12-03T21:07:40.979Z,43.17
2022-12-03T21:10:42.502Z,46.58
2022-12-03T21:13:44.715Z,42.90
2022-12-03T21:17:07.193Z,46.55
2022-12-03T21:20:08.250Z,47.65
2022-12-03T21:23:10.140Z,44.95
2022-12-03T21:26:14.449Z,41.42
2022-12-03T21:29:16.327Z,46.05
2022-12-03T21:32:18.081Z,41.78
2022-12-03T21:35:19.584Z,44.47
2022-12-03T21:38:21.058Z,47.67
2022-12-03T21:41:22.557Z,45.83
2022-12-03T21:44:23.979Z,47.85
2022-12-03T21:47:25.508Z,46.80
2022-12-03T21:50:27.003Z,50.70
2022-12-03T21:53:29.512Z,45.08
2022-12-03T21:56:30.940Z,47.38
2022-12-03T21:59:32.390Z,42.80
2022-12-03T22:02:33.914Z,48.42
2022-12-03T22:05:38.173Z,46.08
2022-12-03T22:11:41.099Z,44.92
2022-12-03T22:14:42.596Z,45.88
2022-12-03T22:17:44.003Z,44.00
2022-12-03T22:20:45.399Z,47.20
2022-12-03T22:23:46.997Z,44.47
2022-12-03T22:26:48.465Z,48.65
2022-12-03T22:29:49.951Z,45.75
2022-12-03T22:32:51.421Z,49.88
2022-12-03T22:36:01.370Z,44.10
2022-12-03T22:39:03.332Z,46.50
2022-12-03T22:42:04.959Z,46.10
2022-12-03T22:45:06.965Z,42.10
2022-12-03T22:48:08.383Z,42.67
2022-12-03T22:51:17.464Z,47.13
2022-12-03T22:54:23.684Z,42.70
2022-12-03T22:57:25.657Z,48.83
2022-12-03T23:00:31.025Z,46.58
2022-12-03T23:03:32.969Z,47.45
2022-12-03T23:06:35.975Z,48.03
2022-12-03T23:09:37.400Z,39.47
2022-12-03T23:12:38.840Z,45.85
2022-12-03T23:15:48.581Z,49.83
2022-12-03T23:18:50.247Z,51.50
2022-12-03T23:21:51.727Z,47.10
2022-12-03T23:24:53.138Z,46.22
2022-12-03T23:27:54.564Z,42.70
2022-12-03T23:30:56.519Z,54.15
2022-12-03T23:33:59.161Z,41.53
2022-12-03T23:37:00.602Z,46.95
2022-12-03T23:40:02.330Z,44.50
2022-12-03T23:43:03.766Z,42.10
2022-12-03T23:46:07.766Z,45.25
2022-12-03T23:49:09.341Z,43.70
2022-12-03T23:52:10.838Z,46.13
2022-12-03T23:55:12.293Z,45.05
2022-12-03T23:58:13.741Z,44.55
